Leighton Buzzard, United Kingdom
Current Conditions -  °F | °C
As of 11:50 AM on Sunday 23 Nov 2014 (Local Time) from EGTC Reporting Station
Light Rain Light Rain  
Wind Chill: 41°   Ceiling: Unl
Heat Index: 45°   Visibility: 5mi
Dew Point: 45°   Wind: 7mph
Humidity: 100%   Direction: 350°N
Pressure: 30.03"   Gusts: NA
Location:  51.92°N, 0.66°W
Report Text: EGTC 231150Z 35006KT 8000 -RA FEW008 07/07 Q1017
Loading
Personal Weather Stations






























Interactive Weather Map New forecast layout! Learn more

10-Day Weather Forecast

Advertisements
Track Severe Weather on mobile